ADDS METAR Data INFO
IDs: Format: Raw Decoded Include TAF

Data at: 0805 UTC 23 Jul 2018

KCCA 230755Z AUTO 00000KT 10SM CLR 21/19 A2992 RMK AO2
KCCA 230735Z AUTO 00000KT 10SM CLR 21/20 A2992 RMK AO2
KCCA 230715Z AUTO 00000KT 10SM CLR 21/20 A2992 RMK AO2
KCCA 230655Z AUTO 00000KT 9SM CLR 21/20 A2992 RMK AO2
KCCA 230635Z AUTO 00000KT 10SM CLR 22/20 A2992 RMK AO2
KCCA 230615Z AUTO 00000KT 10SM CLR 22/20 A2991 RMK AO2
KCCA 230555Z AUTO 00000KT 10SM CLR 22/20 A2992 RMK AO2
KCCA 230535Z AUTO 00000KT 10SM CLR 23/20 A2992 RMK AO2
KCCA 230515Z AUTO 00000KT 10SM CLR 23/20 A2992 RMK AO2
KCCA 230455Z AUTO 00000KT 10SM CLR 23/20 A2991 RMK AO2
KCCA 230435Z AUTO 00000KT 10SM CLR 24/20 A2991 RMK AO2
KCCA 230415Z AUTO 00000KT 10SM CLR 25/19 A2991 RMK AO2
KCCA 230355Z AUTO 00000KT 10SM CLR 25/19 A2990 RMK AO2
KCCA 230335Z AUTO 00000KT 10SM CLR 26/19 A2990 RMK AO2
KCCA 230315Z AUTO 00000KT 10SM CLR 27/19 A2989 RMK AO2
KCCA 230255Z AUTO 00000KT 10SM CLR 27/19 A2989 RMK AO2
KCCA 230235Z AUTO 00000KT 10SM CLR 26/21 A2988 RMK AO2
KCCA 230215Z AUTO 00000KT 10SM CLR 27/20 A2987 RMK AO2
KCCA 230155Z AUTO 00000KT 10SM CLR 28/19 A2986 RMK AO2
KCCA 230135Z AUTO 00000KT 10SM CLR 29/18 A2986 RMK AO2
KCCA 230115Z AUTO 00000KT 10SM CLR 30/17 A2985 RMK AO2
KCCA 230055Z AUTO 35003KT 10SM CLR 31/16 A2985 RMK AO2
KCCA 230035Z AUTO 00000KT 10SM CLR 32/17 A2984 RMK AO2
KCCA 230015Z AUTO 33004KT 10SM CLR 32/18 A2983 RMK AO2
KCCA 222355Z AUTO 31004KT 10SM CLR 33/18 A2983 RMK AO2
KCCA 222335Z AUTO 32006KT 10SM CLR 33/17 A2983 RMK AO2
KCCA 222315Z AUTO 29007KT 260V320 9SM CLR 34/17 A2983 RMK AO2
KCCA 222255Z AUTO 28003G10KT 9SM CLR 34/17 A2984 RMK AO2
KCCA 222235Z AUTO 28009G14KT 250V310 10SM CLR 34/17 A2984 RMK AO2
KCCA 222215Z AUTO 31009KT 10SM CLR 34/17 A2985 RMK AO2
KCCA 222155Z AUTO 29008KT 10SM CLR 33/17 A2985 RMK AO2
KCCA 222135Z AUTO 28008KT 250V310 10SM CLR 33/17 A2985 RMK AO2
KCCA 222115Z AUTO 29009KT 10SM CLR 34/16 A2986 RMK AO2
KCCA 222055Z AUTO 30008G17KT 10SM CLR 33/16 A2986 RMK AO2
KCCA 222035Z AUTO 29008KT 10SM CLR 33/17 A2986 RMK AO2
KCCA 222015Z AUTO 28008KT 10SM CLR 33/16 A2986 RMK AO2
KCCA 221955Z AUTO 30010KT 10SM FEW065 34/16 A2987 RMK AO2
KCCA 221935Z AUTO 27007G12KT 240V300 10SM FEW065 33/17 A2987 RMK AO2
KCCA 221915Z AUTO VRB04G16KT 10SM CLR 34/17 A2988 RMK AO2
KCCA 221855Z AUTO VRB05G11KT 9SM CLR 33/17 A2988 RMK AO2
KCCA 221835Z AUTO VRB06G12KT 10SM CLR 33/17 A2989 RMK AO2
KCCA 221815Z AUTO 33005G13KT 9SM CLR 32/17 A2989 RMK AO2
KCCA 221755Z AUTO VRB06G11KT 9SM CLR 33/16 A2990 RMK AO2
KCCA 221735Z AUTO VRB06KT 9SM CLR 33/18 A2991 RMK AO2
KCCA 221715Z AUTO 31005G11KT 10SM CLR 32/17 A2992 RMK AO2
KCCA 221655Z AUTO 34007KT 310V040 10SM CLR 32/18 A2992 RMK AO2
KCCA 221635Z AUTO 30009KT 10SM CLR 31/18 A2993 RMK AO2
KCCA 221615Z AUTO VRB05KT 10SM CLR 31/18 A2993 RMK AO2
KCCA 221555Z AUTO VRB03G10KT 10SM CLR 30/19 A2993 RMK AO2
KCCA 221535Z AUTO 32005KT 10SM CLR 30/19 A2994 RMK AO2
KCCA 221515Z AUTO VRB03KT 9SM CLR 29/19 A2994 RMK AO2
KCCA 221455Z AUTO VRB04KT 10SM CLR 28/19 A2994 RMK AO2
KCCA 221435Z AUTO 00000KT 10SM CLR 28/19 A2995 RMK AO2
KCCA 221415Z AUTO VRB03KT 10SM CLR 27/20 A2995 RMK AO2
KCCA 221355Z AUTO 00000KT 10SM CLR 25/20 A2995 RMK AO2
KCCA 221335Z AUTO 00000KT 9SM CLR 24/20 A2995 RMK AO2
KCCA 221315Z AUTO 00000KT 10SM CLR 22/19 A2996 RMK AO2
KCCA 221255Z AUTO 00000KT 10SM CLR 21/19 A2995 RMK AO2
KCCA 221235Z AUTO 00000KT 10SM CLR 19/18 A2996 RMK AO2
KCCA 221215Z AUTO 00000KT 9SM CLR 18/18 A2996 RMK AO2
KCCA 221155Z AUTO 00000KT 10SM CLR 18/17 A2995 RMK AO2
KCCA 221135Z AUTO 00000KT 10SM CLR 17/17 A2994 RMK AO2
KCCA 221115Z AUTO 00000KT 10SM CLR 17/17 A2994 RMK AO2
KCCA 221055Z AUTO 00000KT 10SM CLR 18/17 A2993 RMK AO2
KCCA 221035Z AUTO 00000KT 10SM CLR 18/17 A2993 RMK AO2
KCCA 221015Z AUTO 00000KT 10SM CLR 18/17 A2992 RMK AO2
KCCA 220955Z AUTO 00000KT 10SM CLR 18/17 A2992 RMK AO2
KCCA 220935Z AUTO 00000KT 10SM CLR 18/17 A2992 RMK AO2
KCCA 220915Z AUTO 00000KT 9SM CLR 18/18 A2992 RMK AO2
KCCA 220855Z AUTO 00000KT 10SM CLR 18/18 A2992 RMK AO2
KCCA 220835Z AUTO 00000KT 9SM CLR 18/18 A2992 RMK AO2
KCCA 220815Z AUTO 00000KT 10SM CLR 19/18 A2992 RMK AO2
KCCA 220755Z AUTO 00000KT 7SM CLR 19/18 A2992 RMK AO2
KCCA 220735Z AUTO 00000KT 10SM CLR 19/18 A2992 RMK AO2
KCCA 220715Z AUTO 00000KT 10SM CLR 19/18 A2992 RMK AO2
KCCA 220655Z AUTO 00000KT 10SM CLR 19/19 A2992 RMK AO2
KCCA 220635Z AUTO 00000KT 10SM CLR 20/19 A2992 RMK AO2
KCCA 220615Z AUTO 00000KT 10SM CLR 20/19 A2993 RMK AO2
KCCA 220555Z AUTO 00000KT 10SM CLR 20/19 A2993 RMK AO2
KCCA 220535Z AUTO 00000KT 9SM CLR 21/19 A2993 RMK AO2
KCCA 220515Z AUTO 00000KT 10SM CLR 21/20 A2993 RMK AO2
KCCA 220455Z AUTO 00000KT 10SM CLR 21/19 A2993 RMK AO2
KCCA 220435Z AUTO 00000KT 10SM CLR 21/20 A2993 RMK AO2
KCCA 220415Z AUTO 00000KT 10SM CLR 22/20 A2993 RMK AO2
KCCA 220355Z AUTO 00000KT 10SM CLR 22/20 A2992 RMK AO2
KCCA 220335Z AUTO 00000KT 10SM CLR 22/20 A2992 RMK AO2
KCCA 220315Z AUTO 00000KT 10SM CLR 23/20 A2992 RMK AO2
KCCA 220255Z AUTO 00000KT 10SM CLR 24/20 A2991 RMK AO2
KCCA 220235Z AUTO 00000KT 10SM CLR 25/20 A2991 RMK AO2
KCCA 220215Z AUTO 30004KT 10SM CLR 26/20 A2990 RMK AO2
KCCA 220155Z AUTO 30003KT 10SM CLR 28/20 A2989 RMK AO2
KCCA 220135Z AUTO 31004KT 10SM CLR 28/20 A2988 RMK AO2
KCCA 220115Z AUTO 31003KT 10SM CLR 30/20 A2988 RMK AO2
KCCA 220055Z AUTO 00000KT 10SM CLR 32/18 A2987 RMK AO2
KCCA 220035Z AUTO 31003KT 10SM CLR 34/18 A2986 RMK AO2
KCCA 220015Z AUTO 30006KT 10SM CLR 35/17 A2985 RMK AO2
KCCA 212355Z AUTO 29006KT 10SM CLR 36/17 A2985 RMK AO2
KCCA 212335Z AUTO 30009KT 9SM CLR 36/16 A2985 RMK AO2
KCCA 212315Z AUTO 30006G12KT 10SM CLR 36/16 A2985 RMK AO2
KCCA 212255Z AUTO 28008KT 9SM CLR 37/16 A2986 RMK AO2
KCCA 212235Z AUTO 31009G16KT 10SM CLR 37/15 A2986 RMK AO2
KCCA 212215Z AUTO 31009G15KT 250V360 10SM CLR 37/18 A2986 RMK AO2
KCCA 212155Z AUTO 30008KT 9SM CLR 37/18 A2986 RMK AO2
KCCA 212135Z AUTO 31008KT 9SM CLR 37/19 A2986 RMK AO2
KCCA 212115Z AUTO 31008KT 260V350 10SM CLR 37/19 A2986 RMK AO2
KCCA 212055Z AUTO VRB05G12KT 10SM CLR 37/18 A2986 RMK AO2
KCCA 212035Z AUTO 30007G16KT 9SM CLR 37/18 A2987 RMK AO2
KCCA 212015Z AUTO 29011KT 260V320 10SM CLR 37/19 A2987 RMK AO2